createdAt,value
2018-10-06T00:00:47.102Z,3.60
2018-10-06T00:03:17.228Z,3.47
2018-10-06T00:05:47.236Z,3.17
2018-10-06T00:08:17.252Z,2.80
2018-10-06T00:10:47.171Z,3.20
2018-10-06T00:13:17.216Z,3.00
2018-10-06T00:15:47.191Z,2.50
2018-10-06T00:18:17.457Z,2.90
2018-10-06T00:20:47.462Z,3.63
2018-10-06T00:23:17.461Z,3.37
2018-10-06T00:25:47.642Z,3.23
2018-10-06T00:28:17.806Z,3.20
2018-10-06T00:30:47.970Z,3.00
2018-10-06T00:33:18.090Z,3.07
2018-10-06T00:35:48.140Z,3.27
2018-10-06T00:38:18.251Z,3.70
2018-10-06T00:40:48.438Z,3.27
2018-10-06T00:43:18.663Z,3.57
2018-10-06T00:45:48.825Z,3.10
2018-10-06T00:48:18.950Z,3.67
2018-10-06T00:50:49.414Z,3.63
2018-10-06T00:53:19.447Z,3.47
2018-10-06T00:55:49.451Z,3.57
2018-10-06T00:58:19.499Z,3.37
2018-10-06T01:00:49.536Z,3.37
2018-10-06T01:03:19.590Z,3.40
2018-10-06T01:05:49.679Z,3.53
2018-10-06T01:08:19.668Z,3.40
2018-10-06T01:10:49.687Z,3.93
2018-10-06T01:13:19.699Z,3.47
2018-10-06T01:15:49.755Z,3.47
2018-10-06T01:18:19.769Z,3.07
2018-10-06T01:20:49.971Z,3.60
2018-10-06T01:23:19.957Z,3.50
2018-10-06T01:25:50.021Z,3.00
2018-10-06T01:28:20.000Z,3.30
2018-10-06T01:30:50.032Z,3.33
2018-10-06T01:33:20.111Z,3.43
2018-10-06T01:35:50.307Z,3.73
2018-10-06T01:38:20.408Z,3.13
2018-10-06T01:40:50.671Z,3.10
2018-10-06T01:43:20.737Z,3.17
2018-10-06T01:45:50.824Z,3.13
2018-10-06T01:48:20.841Z,2.90
2018-10-06T01:50:51.080Z,3.73
2018-10-06T01:53:21.301Z,3.57
2018-10-06T01:55:51.515Z,3.60
2018-10-06T01:58:21.686Z,3.63
2018-10-06T02:00:51.667Z,3.43
2018-10-06T02:03:21.772Z,3.80
2018-10-06T02:05:51.751Z,3.60
2018-10-06T02:08:22.011Z,3.77
2018-10-06T02:10:51.998Z,3.90
2018-10-06T02:13:22.130Z,3.70
2018-10-06T02:15:52.160Z,4.10
2018-10-06T02:18:22.229Z,3.90
2018-10-06T02:20:53.292Z,3.30
2018-10-06T02:23:23.378Z,3.67
2018-10-06T02:25:53.378Z,4.00
2018-10-06T02:28:23.501Z,4.20
2018-10-06T02:30:53.617Z,3.63
2018-10-06T02:33:24.319Z,3.40
2018-10-06T02:35:54.311Z,3.40
2018-10-06T02:38:24.731Z,3.83
2018-10-06T02:40:54.997Z,4.10
2018-10-06T02:43:24.928Z,3.47
2018-10-06T02:45:55.019Z,3.80
2018-10-06T02:48:25.034Z,3.60
2018-10-06T02:50:55.170Z,3.77
2018-10-06T02:53:25.232Z,3.23
2018-10-06T02:55:55.184Z,3.57
2018-10-06T02:58:25.338Z,3.60
2018-10-06T03:00:55.416Z,3.90
2018-10-06T03:03:25.462Z,4.77
2018-10-06T03:05:55.538Z,3.90
2018-10-06T03:08:25.575Z,4.37
2018-10-06T03:10:55.614Z,4.07
2018-10-06T03:13:25.701Z,4.17
2018-10-06T03:15:55.929Z,4.90
2018-10-06T03:18:25.906Z,4.30
2018-10-06T03:20:56.004Z,5.17
2018-10-06T03:23:26.112Z,4.67
2018-10-06T03:25:56.192Z,5.13
2018-10-06T03:28:26.278Z,4.63
2018-10-06T03:30:56.276Z,4.83
2018-10-06T03:33:26.339Z,4.80
2018-10-06T03:35:56.575Z,5.30
2018-10-06T03:38:26.720Z,4.60
2018-10-06T03:40:56.886Z,4.93
2018-10-06T03:43:27.069Z,5.33
2018-10-06T03:45:57.232Z,4.57
2018-10-06T03:48:27.294Z,4.77
2018-10-06T03:50:57.794Z,4.07
2018-10-06T03:53:27.834Z,4.80
2018-10-06T03:55:57.953Z,4.70
2018-10-06T03:58:28.108Z,4.33
2018-10-06T04:00:59.010Z,4.37
2018-10-06T04:03:29.178Z,4.33
2018-10-06T04:05:59.368Z,4.47
2018-10-06T04:08:29.376Z,4.03
2018-10-06T04:10:59.594Z,4.43
2018-10-06T04:13:29.832Z,3.63
2018-10-06T04:15:59.863Z,4.30
2018-10-06T04:18:30.024Z,3.70
2018-10-06T04:21:00.647Z,4.37
2018-10-06T04:23:30.740Z,4.07
2018-10-06T04:26:00.814Z,4.70
2018-10-06T04:28:30.911Z,4.10
2018-10-06T04:31:01.037Z,4.50
2018-10-06T04:33:31.197Z,4.20
2018-10-06T04:36:01.260Z,4.93
2018-10-06T04:38:31.378Z,4.67
2018-10-06T04:41:01.534Z,4.13
2018-10-06T04:43:31.597Z,4.53
2018-10-06T04:46:01.665Z,4.43
2018-10-06T04:48:31.731Z,4.53
2018-10-06T04:51:02.035Z,4.50
2018-10-06T04:53:32.014Z,4.70
2018-10-06T04:56:02.160Z,4.97
2018-10-06T04:58:32.287Z,4.43
2018-10-06T05:01:02.297Z,4.53
2018-10-06T05:03:32.471Z,4.80
2018-10-06T05:06:02.599Z,5.23
2018-10-06T05:08:32.705Z,5.03
2018-10-06T05:11:02.815Z,4.47
2018-10-06T05:13:32.967Z,5.20
2018-10-06T05:16:03.149Z,5.57
2018-10-06T05:18:33.284Z,5.23
2018-10-06T05:21:03.403Z,4.40
2018-10-06T05:23:33.447Z,4.83
2018-10-06T05:26:03.571Z,5.27
2018-10-06T05:28:33.593Z,5.17
2018-10-06T05:31:03.825Z,5.17
2018-10-06T05:33:33.835Z,4.83
2018-10-06T05:36:04.171Z,4.47
2018-10-06T05:38:34.489Z,4.57
2018-10-06T05:41:04.842Z,3.97
2018-10-06T05:43:34.893Z,4.30
2018-10-06T05:46:04.904Z,4.97
2018-10-06T05:48:34.927Z,5.07
2018-10-06T05:51:04.920Z,4.73
2018-10-06T05:53:35.085Z,5.30
2018-10-06T05:56:05.073Z,4.77
2018-10-06T05:58:35.151Z,5.33
2018-10-06T06:01:06.063Z,5.03
2018-10-06T06:03:36.123Z,5.97
2018-10-06T06:06:06.184Z,5.00
2018-10-06T06:08:36.458Z,4.70
2018-10-06T06:11:07.339Z,5.30
2018-10-06T06:13:37.305Z,5.10
2018-10-06T06:16:07.334Z,4.40
2018-10-06T06:18:37.513Z,4.57
2018-10-06T06:21:07.592Z,5.50
2018-10-06T06:23:37.758Z,5.80
2018-10-06T06:26:07.934Z,4.77
2018-10-06T06:28:37.972Z,4.20
2018-10-06T06:31:08.683Z,5.13
2018-10-06T06:33:38.806Z,4.87
2018-10-06T06:36:09.048Z,4.30
2018-10-06T06:38:39.072Z,4.10
2018-10-06T06:41:09.184Z,5.23
2018-10-06T06:43:39.423Z,4.67
2018-10-06T06:46:09.604Z,4.87
2018-10-06T06:48:40.301Z,5.00
2018-10-06T06:51:11.422Z,5.23
2018-10-06T06:53:41.688Z,4.63
2018-10-06T06:56:11.724Z,4.87
2018-10-06T06:58:41.754Z,4.20
2018-10-06T07:01:11.780Z,4.57
2018-10-06T07:03:41.858Z,4.90
2018-10-06T07:06:12.238Z,4.40
2018-10-06T07:08:42.655Z,4.77
2018-10-06T07:11:12.836Z,5.07
2018-10-06T07:13:42.954Z,4.03
2018-10-06T07:16:12.975Z,4.17
2018-10-06T07:18:43.318Z,4.23
2018-10-06T07:21:13.391Z,4.63
2018-10-06T07:23:43.502Z,4.40
2018-10-06T07:26:13.669Z,3.87
2018-10-06T07:28:43.723Z,3.47
2018-10-06T07:31:14.323Z,3.40
2018-10-06T07:33:44.590Z,2.90
2018-10-06T07:36:14.758Z,2.60
2018-10-06T07:38:44.776Z,2.93
2018-10-06T07:41:14.858Z,2.53
2018-10-06T07:43:44.926Z,2.40
2018-10-06T07:46:15.208Z,2.30
2018-10-06T07:48:45.356Z,1.80
2018-10-06T07:51:15.562Z,1.97
2018-10-06T07:53:45.602Z,1.93
2018-10-06T07:56:15.814Z,1.83
2018-10-06T07:58:46.022Z,1.60
2018-10-06T08:01:16.048Z,1.90
2018-10-06T08:03:46.155Z,1.47
2018-10-06T08:06:16.300Z,1.70
2018-10-06T08:08:46.316Z,1.70
2018-10-06T08:11:16.420Z,1.30
2018-10-06T08:13:46.676Z,1.33
2018-10-06T08:16:16.848Z,1.53
2018-10-06T08:18:47.062Z,1.70
2018-10-06T08:21:17.692Z,1.40
2018-10-06T08:23:47.827Z,1.70
2018-10-06T08:26:18.032Z,1.27
2018-10-06T08:28:48.212Z,1.63
2018-10-06T08:31:19.379Z,1.70
2018-10-06T08:33:49.452Z,1.77
2018-10-06T08:36:19.462Z,2.17
2018-10-06T08:38:49.482Z,1.90
2018-10-06T08:41:19.777Z,1.87
2018-10-06T08:43:49.847Z,1.90
2018-10-06T08:46:20.088Z,2.50
2018-10-06T08:48:50.354Z,2.77
2018-10-06T08:51:20.428Z,2.60
2018-10-06T08:53:50.606Z,2.87
2018-10-06T08:56:20.762Z,2.70
2018-10-06T08:58:50.660Z,2.60
2018-10-06T09:01:21.026Z,2.00
2018-10-06T09:03:51.060Z,2.03
2018-10-06T09:06:21.330Z,2.53
2018-10-06T09:08:51.531Z,2.30
2018-10-06T09:11:21.665Z,2.43
2018-10-06T09:13:51.854Z,2.33
2018-10-06T09:16:21.830Z,2.27
2018-10-06T09:18:52.047Z,2.37
2018-10-06T09:21:22.713Z,2.80
2018-10-06T09:23:52.723Z,2.10
2018-10-06T09:26:22.865Z,1.97
2018-10-06T09:28:52.985Z,1.67
2018-10-06T09:31:23.054Z,1.60
2018-10-06T09:33:53.129Z,1.77
2018-10-06T09:36:23.203Z,1.40
2018-10-06T09:38:53.209Z,1.80
2018-10-06T09:41:23.313Z,1.70
2018-10-06T09:43:53.460Z,1.67
2018-10-06T09:46:23.505Z,1.90
2018-10-06T09:48:53.616Z,1.50
2018-10-06T09:51:23.817Z,1.50
2018-10-06T09:53:54.017Z,1.30
2018-10-06T09:56:24.073Z,1.67
2018-10-06T09:58:54.353Z,1.60
2018-10-06T10:01:29.643Z,1.80
2018-10-06T10:04:05.073Z,1.40
2018-10-06T10:06:35.141Z,1.50
2018-10-06T10:09:07.493Z,1.83
2018-10-06T10:11:38.918Z,1.80
2018-10-06T10:14:09.591Z,1.83
2018-10-06T10:16:39.712Z,1.90
2018-10-06T10:19:09.703Z,2.50
2018-10-06T10:21:39.834Z,2.13
2018-10-06T10:24:10.110Z,2.07
2018-10-06T10:26:40.271Z,1.87
2018-10-06T10:29:10.457Z,1.60
2018-10-06T10:31:40.525Z,1.83
2018-10-06T10:34:10.567Z,1.70
2018-10-06T10:36:40.599Z,1.70
2018-10-06T10:39:10.758Z,1.97
2018-10-06T10:41:40.675Z,2.07
2018-10-06T10:44:10.671Z,2.37
2018-10-06T10:46:40.749Z,1.80
2018-10-06T10:49:10.830Z,2.07
2018-10-06T10:51:40.847Z,2.63
2018-10-06T10:54:10.883Z,2.17
2018-10-06T10:56:40.989Z,2.30
2018-10-06T10:59:11.027Z,1.70
2018-10-06T11:01:41.128Z,2.00
2018-10-06T11:04:11.456Z,1.50
2018-10-06T11:06:41.543Z,1.57
2018-10-06T11:09:11.627Z,1.43
2018-10-06T11:11:41.810Z,2.10
2018-10-06T11:14:12.536Z,1.73
2018-10-06T11:16:42.660Z,1.70
2018-10-06T11:19:12.759Z,2.00
2018-10-06T11:21:42.747Z,2.33
2018-10-06T11:24:13.141Z,1.80
2018-10-06T11:26:43.266Z,2.33
2018-10-06T11:29:13.374Z,2.40
2018-10-06T11:31:43.424Z,2.07
2018-10-06T11:34:13.614Z,2.03
2018-10-06T11:36:43.661Z,2.60
2018-10-06T11:39:13.714Z,2.43
2018-10-06T11:41:43.782Z,2.57
2018-10-06T11:44:14.486Z,2.40
2018-10-06T11:46:44.506Z,2.80
2018-10-06T11:49:14.594Z,2.60
2018-10-06T11:51:44.718Z,2.80
2018-10-06T11:54:14.900Z,3.47
2018-10-06T11:56:44.960Z,3.43
2018-10-06T11:59:15.948Z,3.13
2018-10-06T12:01:46.070Z,2.97
2018-10-06T12:04:16.328Z,2.00
2018-10-06T12:06:46.427Z,2.03
2018-10-06T12:09:16.450Z,1.93
2018-10-06T12:11:46.694Z,1.60
2018-10-06T12:14:16.825Z,2.00
2018-10-06T12:16:46.882Z,2.10
2018-10-06T12:19:16.970Z,1.80
2018-10-06T12:21:47.104Z,2.00
2018-10-06T12:24:17.264Z,2.00
2018-10-06T12:26:47.399Z,1.90
2018-10-06T12:29:17.416Z,1.87
2018-10-06T12:31:47.522Z,1.70
2018-10-06T12:34:17.540Z,1.83
2018-10-06T12:36:47.624Z,2.00
2018-10-06T12:39:17.904Z,2.07
2018-10-06T12:41:47.999Z,2.40
2018-10-06T12:44:18.096Z,2.07
2018-10-06T12:46:48.229Z,2.17
2018-10-06T12:49:18.328Z,2.23
2018-10-06T12:51:48.566Z,2.77
2018-10-06T12:54:18.598Z,3.20
2018-10-06T12:56:48.593Z,2.60
2018-10-06T12:59:18.618Z,1.90
2018-10-06T13:01:48.685Z,2.17
2018-10-06T13:04:18.711Z,2.00
2018-10-06T13:06:48.798Z,2.10
2018-10-06T13:09:18.972Z,2.40
2018-10-06T13:11:49.068Z,2.47
2018-10-06T13:14:19.198Z,1.70
2018-10-06T13:16:49.275Z,2.00
2018-10-06T13:19:19.466Z,1.80
2018-10-06T13:21:49.550Z,1.80
2018-10-06T13:24:19.666Z,1.70
2018-10-06T13:26:49.911Z,1.70
2018-10-06T13:29:20.022Z,1.80
2018-10-06T13:31:50.113Z,1.67
2018-10-06T13:34:20.202Z,1.60
2018-10-06T13:36:50.304Z,1.40
2018-10-06T13:39:20.349Z,1.40
2018-10-06T13:41:50.605Z,1.33
2018-10-06T13:44:20.663Z,1.43
2018-10-06T13:46:50.688Z,1.67
2018-10-06T13:49:20.681Z,1.33
2018-10-06T13:51:50.830Z,1.70
2018-10-06T13:54:21.311Z,1.50
2018-10-06T13:56:51.413Z,1.90
2018-10-06T13:59:21.993Z,1.77
2018-10-06T14:01:52.040Z,1.83
2018-10-06T14:04:22.029Z,1.30
2018-10-06T14:06:52.059Z,1.87
2018-10-06T14:09:22.161Z,1.73
2018-10-06T14:11:52.335Z,1.70
2018-10-06T14:14:22.375Z,1.67
2018-10-06T14:16:52.532Z,1.60
2018-10-06T14:19:22.709Z,1.53
2018-10-06T14:21:52.715Z,1.40
2018-10-06T14:24:22.819Z,1.50
2018-10-06T14:26:53.000Z,1.60
2018-10-06T14:29:23.143Z,1.30
2018-10-06T14:31:53.412Z,1.27
2018-10-06T14:34:23.556Z,1.10
2018-10-06T14:36:53.733Z,1.43
2018-10-06T14:39:24.316Z,1.83
2018-10-06T14:41:54.573Z,1.60
2018-10-06T14:44:24.920Z,1.80
2018-10-06T14:46:54.819Z,1.67
2018-10-06T14:49:24.895Z,1.80
2018-10-06T14:51:55.203Z,1.47
2018-10-06T14:54:25.831Z,1.50
2018-10-06T14:56:55.910Z,1.37
2018-10-06T14:59:26.067Z,1.20
2018-10-06T15:01:56.133Z,1.47
2018-10-06T15:04:26.295Z,1.97
2018-10-06T15:06:56.375Z,2.37
2018-10-06T15:09:26.359Z,2.70
2018-10-06T15:11:56.571Z,2.00
2018-10-06T15:14:26.691Z,1.93
2018-10-06T15:16:56.911Z,2.00
2018-10-06T15:19:27.187Z,1.80
2018-10-06T15:21:57.195Z,1.83
2018-10-06T15:24:27.209Z,1.60
2018-10-06T15:26:57.196Z,1.30
2018-10-06T15:29:27.348Z,1.13
2018-10-06T15:31:57.483Z,1.40
2018-10-06T15:34:27.690Z,1.33
2018-10-06T15:36:57.795Z,1.00
2018-10-06T15:39:28.088Z,1.20
2018-10-06T15:41:58.220Z,1.17
2018-10-06T15:44:28.353Z,1.00
2018-10-06T15:46:58.391Z,1.00
2018-10-06T15:49:28.573Z,0.83
2018-10-06T15:51:58.697Z,0.67
2018-10-06T15:54:30.722Z,0.90
2018-10-06T15:57:03.765Z,0.63
2018-10-06T15:59:34.076Z,0.73
2018-10-06T16:02:04.081Z,0.60
2018-10-06T16:04:34.185Z,0.97
2018-10-06T16:07:04.283Z,0.73
2018-10-06T16:09:34.352Z,1.00
2018-10-06T16:12:04.478Z,0.97
2018-10-06T16:14:34.525Z,1.10
2018-10-06T16:17:04.692Z,1.27
2018-10-06T16:19:34.898Z,1.10
2018-10-06T16:22:05.087Z,1.10
2018-10-06T16:24:35.107Z,1.27
2018-10-06T16:27:05.307Z,1.37
2018-10-06T16:29:35.347Z,1.20
2018-10-06T16:32:05.609Z,1.10
2018-10-06T16:34:35.822Z,1.43
2018-10-06T16:37:06.115Z,1.50
2018-10-06T16:39:36.223Z,1.40
2018-10-06T16:42:06.324Z,1.70
2018-10-06T16:44:36.425Z,1.70
2018-10-06T16:47:06.657Z,1.60
2018-10-06T16:49:36.679Z,1.27
2018-10-06T16:52:06.853Z,1.60
2018-10-06T16:54:37.120Z,1.50
2018-10-06T16:57:07.200Z,1.50
2018-10-06T16:59:37.317Z,1.80
2018-10-06T17:02:07.753Z,1.63
2018-10-06T17:04:37.853Z,1.50
2018-10-06T17:07:07.946Z,1.53
2018-10-06T17:09:38.040Z,1.60
2018-10-06T17:12:08.365Z,1.50
2018-10-06T17:14:38.511Z,1.70
2018-10-06T17:17:08.570Z,1.37
2018-10-06T17:19:38.583Z,1.80
2018-10-06T17:22:08.715Z,1.53
2018-10-06T17:24:38.830Z,1.37
2018-10-06T17:27:09.098Z,1.70
2018-10-06T17:29:39.237Z,1.50
2018-10-06T17:32:09.593Z,1.33
2018-10-06T17:34:39.755Z,1.50
2018-10-06T17:37:09.935Z,1.47
2018-10-06T17:39:40.231Z,1.50
2018-10-06T17:42:10.273Z,1.30
2018-10-06T17:44:40.455Z,1.73
2018-10-06T17:47:10.671Z,1.50
2018-10-06T17:49:41.021Z,1.57
2018-10-06T17:52:11.323Z,1.50
2018-10-06T17:54:41.305Z,1.70
2018-10-06T17:57:11.391Z,1.50
2018-10-06T17:59:41.508Z,1.70
2018-10-06T18:02:11.746Z,1.50
2018-10-06T18:04:41.915Z,1.50
2018-10-06T18:07:11.931Z,1.60
2018-10-06T18:09:41.949Z,1.40
2018-10-06T18:12:12.063Z,1.80
2018-10-06T18:14:42.161Z,1.57
2018-10-06T18:17:12.206Z,1.90
2018-10-06T18:19:42.175Z,1.70
2018-10-06T18:22:12.324Z,1.77
2018-10-06T18:24:42.478Z,1.80
2018-10-06T18:27:12.624Z,1.60
2018-10-06T18:29:43.108Z,1.50
2018-10-06T18:32:13.303Z,1.63
2018-10-06T18:34:43.472Z,1.83
2018-10-06T18:37:13.851Z,1.53
2018-10-06T18:39:44.000Z,1.60
2018-10-06T18:42:14.151Z,1.70
2018-10-06T18:44:44.231Z,1.70
2018-10-06T18:47:14.296Z,1.40
2018-10-06T18:49:44.381Z,1.90
2018-10-06T18:52:14.601Z,1.50
2018-10-06T18:54:44.590Z,1.93
2018-10-06T18:57:14.633Z,2.00
2018-10-06T18:59:45.263Z,2.00
2018-10-06T19:02:15.860Z,2.13
2018-10-06T19:04:46.492Z,2.33
2018-10-06T19:07:17.326Z,2.30
2018-10-06T19:09:47.955Z,2.50
2018-10-06T19:12:18.638Z,2.17
2018-10-06T19:14:49.189Z,1.90
2018-10-06T19:17:19.679Z,1.97
2018-10-06T19:19:50.344Z,1.90
2018-10-06T19:22:21.076Z,1.87
2018-10-06T19:24:51.562Z,1.93
2018-10-06T19:27:22.018Z,1.50
2018-10-06T19:29:52.625Z,1.63
2018-10-06T19:32:23.206Z,1.53
2018-10-06T19:34:53.686Z,1.70
2018-10-06T19:37:24.467Z,1.60
2018-10-06T19:39:55.102Z,1.80
2018-10-06T19:42:25.748Z,1.80
2018-10-06T19:44:56.274Z,1.50
2018-10-06T19:47:27.011Z,1.23
2018-10-06T19:49:57.492Z,1.47
2018-10-06T19:52:27.933Z,1.60
2018-10-06T19:54:58.422Z,1.53
2018-10-06T19:57:28.956Z,1.77
2018-10-06T19:59:59.475Z,1.50
2018-10-06T20:02:30.024Z,1.60
2018-10-06T20:05:00.532Z,1.50
2018-10-06T20:07:31.024Z,1.40
2018-10-06T20:10:01.557Z,1.40
2018-10-06T20:12:32.265Z,1.50
2018-10-06T20:15:02.720Z,1.50
2018-10-06T20:17:33.316Z,1.47
2018-10-06T20:20:03.846Z,1.57
2018-10-06T20:22:34.562Z,1.40
2018-10-06T20:25:04.854Z,1.70
2018-10-06T20:27:35.014Z,1.53
2018-10-06T20:30:05.340Z,1.40
2018-10-06T20:32:35.469Z,1.60
2018-10-06T20:35:05.550Z,1.50
2018-10-06T20:37:35.978Z,1.30
2018-10-06T20:40:06.265Z,1.30
2018-10-06T20:42:36.464Z,1.40
2018-10-06T20:45:06.667Z,1.30
2018-10-06T20:47:36.968Z,1.60
2018-10-06T20:50:07.129Z,1.47
2018-10-06T20:52:37.127Z,1.40
2018-10-06T20:55:07.318Z,1.50
2018-10-06T20:57:37.468Z,1.13
2018-10-06T21:00:08.772Z,1.30
2018-10-06T21:02:38.907Z,1.47
2018-10-06T21:05:09.122Z,1.57
2018-10-06T21:07:39.148Z,1.60
2018-10-06T21:10:09.312Z,1.50
2018-10-06T21:12:39.454Z,1.40
2018-10-06T21:15:09.550Z,1.33
2018-10-06T21:17:39.731Z,1.33
2018-10-06T21:20:09.786Z,1.40
2018-10-06T21:22:39.930Z,1.50
2018-10-06T21:25:10.130Z,1.50
2018-10-06T21:27:40.210Z,1.63
2018-10-06T21:30:10.372Z,1.40
2018-10-06T21:32:40.627Z,1.20
2018-10-06T21:35:10.685Z,1.40
2018-10-06T21:37:40.820Z,1.17
2018-10-06T21:40:10.915Z,1.40
2018-10-06T21:42:40.977Z,1.13
2018-10-06T21:45:11.402Z,1.30
2018-10-06T21:47:41.630Z,1.50
2018-10-06T21:50:11.648Z,1.37
2018-10-06T21:52:41.786Z,1.30
2018-10-06T21:55:11.792Z,1.40
2018-10-06T21:57:41.942Z,1.10
2018-10-06T22:00:12.118Z,1.30
2018-10-06T22:02:42.137Z,1.30
2018-10-06T22:05:12.362Z,1.70
2018-10-06T22:07:42.438Z,1.30
2018-10-06T22:10:12.746Z,1.53
2018-10-06T22:12:42.941Z,1.60
2018-10-06T22:15:13.235Z,1.80
2018-10-06T22:17:43.250Z,1.70
2018-10-06T22:20:13.502Z,1.60
2018-10-06T22:22:43.483Z,1.93
2018-10-06T22:25:13.540Z,1.60
2018-10-06T22:27:43.590Z,1.47
2018-10-06T22:30:13.742Z,1.70
2018-10-06T22:32:43.811Z,1.97
2018-10-06T22:35:14.021Z,1.90
2018-10-06T22:37:44.144Z,1.90
2018-10-06T22:40:14.232Z,1.50
2018-10-06T22:42:44.313Z,1.87
2018-10-06T22:45:14.468Z,1.83
2018-10-06T22:47:44.528Z,2.33
2018-10-06T22:50:14.593Z,2.40
2018-10-06T22:52:44.761Z,2.17
2018-10-06T22:55:14.895Z,2.00
2018-10-06T22:57:44.969Z,2.13
2018-10-06T23:00:15.128Z,1.90
2018-10-06T23:02:45.220Z,2.20
2018-10-06T23:05:15.227Z,2.23
2018-10-06T23:07:45.245Z,2.37
2018-10-06T23:10:15.299Z,2.60
2018-10-06T23:12:45.454Z,3.00
2018-10-06T23:15:15.491Z,2.77
2018-10-06T23:17:45.549Z,2.77
2018-10-06T23:20:15.737Z,2.90
2018-10-06T23:22:45.792Z,2.77
2018-10-06T23:25:15.876Z,3.40
2018-10-06T23:27:45.949Z,2.70
2018-10-06T23:30:16.137Z,2.90
2018-10-06T23:32:46.219Z,2.57
2018-10-06T23:35:16.325Z,2.90
2018-10-06T23:37:46.587Z,3.03
2018-10-06T23:40:16.857Z,3.30
2018-10-06T23:42:46.943Z,2.60
2018-10-06T23:45:17.151Z,3.00
2018-10-06T23:47:47.323Z,3.30
2018-10-06T23:50:17.370Z,2.70
2018-10-06T23:52:47.393Z,2.87
2018-10-06T23:55:17.562Z,2.60
2018-10-06T23:57:47.694Z,2.50
